createdAt,value
2019-02-07T00:00:58.906Z,100834.48
2019-02-07T00:05:03.196Z,100834.48
2019-02-07T00:09:10.346Z,100819.97
2019-02-07T00:13:14.603Z,100817.13
2019-02-07T00:17:18.830Z,100825.67
2019-02-07T00:21:23.804Z,100817.02
2019-02-07T00:25:28.066Z,100821.18
2019-02-07T00:29:32.441Z,100812.44
2019-02-07T00:33:36.724Z,100805.99
2019-02-07T00:37:40.989Z,100802.53
2019-02-07T00:41:45.899Z,100797.62
2019-02-07T00:45:50.173Z,100788.96
2019-02-07T00:49:54.480Z,100782.22
2019-02-07T00:53:58.731Z,100781.30
2019-02-07T00:58:03.100Z,100780.12
2019-02-07T01:02:08.050Z,100782.70
2019-02-07T01:06:12.599Z,100768.73
2019-02-07T01:10:20.787Z,100761.30
2019-02-07T01:14:25.519Z,100766.93
2019-02-07T01:18:29.888Z,100753.38
2019-02-07T01:22:34.463Z,100751.30
2019-02-07T01:26:38.776Z,100738.41
2019-02-07T01:30:43.348Z,100742.17
2019-02-07T01:34:47.655Z,100731.16
2019-02-07T01:38:51.962Z,100726.62
2019-02-07T01:42:56.858Z,100712.91
2019-02-07T01:47:01.084Z,100712.91
2019-02-07T01:51:05.530Z,100714.20
2019-02-07T01:55:10.131Z,100698.25
2019-02-07T01:59:14.693Z,100699.10
2019-02-07T02:03:18.980Z,100690.34
2019-02-07T02:07:23.343Z,100689.91
2019-02-07T02:11:27.655Z,100684.81
2019-02-07T02:15:32.359Z,100679.55
2019-02-07T02:19:36.612Z,100677.37
2019-02-07T02:23:40.904Z,100667.14
2019-02-07T02:27:45.950Z,100664.37
2019-02-07T02:31:50.240Z,100654.06
2019-02-07T02:35:54.824Z,100649.72
2019-02-07T02:39:59.064Z,100635.43
2019-02-07T02:44:03.739Z,100636.20
2019-02-07T02:48:08.017Z,100626.75
2019-02-07T02:52:12.256Z,100623.58
2019-02-07T02:56:16.908Z,100616.81
2019-02-07T03:00:24.693Z,100609.86
2019-02-07T03:05:06.791Z,100601.64
2019-02-07T03:09:34.645Z,100603.20
2019-02-07T03:14:02.263Z,100598.63
2019-02-07T03:18:28.903Z,100581.40
2019-02-07T03:22:50.666Z,100578.83
2019-02-07T03:27:07.567Z,100575.14
2019-02-07T03:31:39.857Z,100580.81
2019-02-07T03:36:12.358Z,100569.54
2019-02-07T03:40:28.982Z,100567.12
2019-02-07T03:44:51.353Z,100568.00
2019-02-07T03:49:13.372Z,100565.21
2019-02-07T03:53:48.755Z,100568.00
2019-02-07T03:58:21.102Z,100554.42
2019-02-07T04:02:47.246Z,100538.13
2019-02-07T04:07:22.552Z,100534.96
2019-02-07T04:11:44.424Z,100534.05
2019-02-07T04:16:15.131Z,100527.91
2019-02-07T04:20:50.957Z,100514.11
2019-02-07T04:25:12.742Z,100500.34
2019-02-07T04:29:45.102Z,100500.75
2019-02-07T04:34:11.563Z,100485.31
2019-02-07T04:38:35.668Z,100484.95
2019-02-07T04:42:58.916Z,100480.05
2019-02-07T04:47:14.762Z,100482.63
2019-02-07T04:51:36.573Z,100472.06
2019-02-07T04:56:08.145Z,100468.28
2019-02-07T05:00:23.274Z,100458.34
2019-02-07T05:04:45.618Z,100452.10
2019-02-07T05:09:18.142Z,100444.56
2019-02-07T05:13:40.422Z,100432.87
2019-02-07T05:18:07.976Z,100428.73
2019-02-07T05:22:34.306Z,100420.82
2019-02-07T05:26:48.796Z,100424.09
2019-02-07T05:31:10.496Z,100424.88
2019-02-07T05:35:32.724Z,100416.77
2019-02-07T05:40:14.278Z,100410.83
2019-02-07T05:44:38.187Z,100413.22
2019-02-07T05:49:01.273Z,100407.66
2019-02-07T05:53:43.086Z,100416.20
2019-02-07T05:58:15.124Z,100407.95
2019-02-07T06:02:44.488Z,100404.09
2019-02-07T06:07:06.008Z,100406.67
2019-02-07T06:11:29.362Z,100403.31
2019-02-07T06:15:51.599Z,100407.66
2019-02-07T06:20:24.459Z,100401.32
2019-02-07T06:24:47.732Z,100390.61
2019-02-07T06:29:26.812Z,100389.42
2019-02-07T06:33:48.969Z,100390.34
2019-02-07T06:38:24.263Z,100392.82
2019-02-07T06:42:41.776Z,100409.07
2019-02-07T06:47:13.292Z,100408.88
2019-02-07T06:51:32.979Z,100408.88
2019-02-07T06:55:49.199Z,100402.44
2019-02-07T07:00:15.769Z,100393.69
2019-02-07T07:04:39.397Z,100405.09
2019-02-07T07:09:21.142Z,100398.47
2019-02-07T07:13:32.294Z,100395.69
2019-02-07T07:17:55.575Z,100393.99
2019-02-07T07:22:21.567Z,100394.88
2019-02-07T07:27:00.019Z,100393.08
2019-02-07T07:31:30.452Z,100384.45
2019-02-07T07:35:46.317Z,100388.77
2019-02-07T07:40:08.181Z,100380.30
2019-02-07T07:44:30.362Z,100374.44
2019-02-07T07:49:05.710Z,100367.25
2019-02-07T07:53:28.972Z,100371.58
2019-02-07T07:57:49.838Z,100371.84
2019-02-07T08:02:06.882Z,100373.23
2019-02-07T08:06:23.350Z,100363.56
2019-02-07T08:10:55.732Z,100368.95
2019-02-07T08:15:17.957Z,100359.33
2019-02-07T08:19:50.490Z,100358.73
2019-02-07T08:24:12.089Z,100356.47
2019-02-07T08:28:38.062Z,100358.37
2019-02-07T08:33:00.582Z,100362.14
2019-02-07T08:37:38.873Z,100356.69
2019-02-07T08:42:11.284Z,100368.68
2019-02-07T08:46:34.455Z,100370.23
2019-02-07T08:50:56.711Z,100361.70
2019-02-07T08:55:22.928Z,100364.53
2019-02-07T08:59:52.311Z,100359.55
2019-02-07T09:04:14.558Z,100355.48
2019-02-07T09:08:49.975Z,100356.28
2019-02-07T09:13:31.807Z,100346.55
2019-02-07T09:17:57.848Z,100351.06
2019-02-07T09:22:20.033Z,100350.09
2019-02-07T09:26:52.558Z,100353.94
2019-02-07T09:31:18.611Z,100345.63
2019-02-07T09:35:41.607Z,100357.02
2019-02-07T09:39:56.186Z,100354.77
2019-02-07T09:44:25.925Z,100344.63
2019-02-07T09:49:02.987Z,100347.34
2019-02-07T09:53:24.099Z,100340.48
2019-02-07T09:57:33.287Z,100342.27
2019-02-07T10:01:46.606Z,100336.27
2019-02-07T10:06:00.362Z,100337.25
2019-02-07T10:10:27.827Z,100339.86
2019-02-07T10:15:09.498Z,100336.97
2019-02-07T10:19:32.727Z,100333.36
2019-02-07T10:23:58.929Z,100322.14
2019-02-07T10:28:12.632Z,100316.16
2019-02-07T10:32:37.823Z,100317.77
2019-02-07T10:36:47.413Z,100306.55
2019-02-07T10:41:03.377Z,100294.34
2019-02-07T10:45:27.568Z,100288.85
2019-02-07T10:49:46.192Z,100280.34
2019-02-07T10:53:58.056Z,100278.09
2019-02-07T10:58:33.690Z,100269.77
2019-02-07T11:03:15.339Z,100258.61
2019-02-07T11:07:31.380Z,100258.61
2019-02-07T11:11:57.903Z,100252.72
2019-02-07T11:16:20.442Z,100247.91
2019-02-07T11:20:58.840Z,100240.99
2019-02-07T11:25:25.039Z,100229.40
2019-02-07T11:29:48.320Z,100221.92
2019-02-07T11:34:20.883Z,100219.39
2019-02-07T11:38:49.713Z,100219.38
2019-02-07T11:43:13.278Z,100208.09
2019-02-07T11:47:51.797Z,100202.94
2019-02-07T11:52:33.238Z,100192.40
2019-02-07T11:56:55.061Z,100182.83
2019-02-07T12:01:30.631Z,100178.23
2019-02-07T12:05:56.858Z,100166.73
2019-02-07T12:10:23.599Z,100165.11
2019-02-07T12:14:45.805Z,100169.95
2019-02-07T12:19:17.778Z,100161.94
2019-02-07T12:23:43.032Z,100157.88
2019-02-07T12:28:12.445Z,100159.13
2019-02-07T12:32:41.826Z,100140.49
2019-02-07T12:37:05.020Z,100137.61
2019-02-07T12:41:27.413Z,100137.06
2019-02-07T12:45:46.228Z,100126.45
2019-02-07T12:50:12.481Z,100120.86
2019-02-07T12:54:34.939Z,100105.75
2019-02-07T12:58:57.340Z,100105.95
2019-02-07T13:03:18.603Z,100105.37
2019-02-07T13:07:40.708Z,100107.05
2019-02-07T13:12:03.357Z,100102.76
2019-02-07T13:16:32.659Z,100108.03
2019-02-07T13:21:06.265Z,100117.11
2019-02-07T13:25:29.352Z,100098.90
2019-02-07T13:29:48.183Z,100103.12
2019-02-07T13:34:17.541Z,100108.16
2019-02-07T13:38:52.977Z,100104.19
2019-02-07T13:43:25.473Z,100103.70
2019-02-07T13:47:54.575Z,100100.18
2019-02-07T13:52:17.917Z,100097.55
2019-02-07T13:56:35.624Z,100087.17
2019-02-07T14:00:57.505Z,100084.33
2019-02-07T14:05:09.303Z,100091.28
2019-02-07T14:09:31.873Z,100089.13
2019-02-07T14:14:01.210Z,100092.64
2019-02-07T14:18:23.239Z,100090.91
2019-02-07T14:22:38.929Z,100091.92
2019-02-07T14:27:00.954Z,100089.41
2019-02-07T14:31:14.198Z,100085.20
2019-02-07T14:35:46.341Z,100073.41
2019-02-07T14:40:15.639Z,100090.38
2019-02-07T14:44:39.095Z,100071.91
2019-02-07T14:48:45.209Z,100072.67
2019-02-07T14:52:49.246Z,100074.31
2019-02-07T14:56:53.510Z,100068.17
2019-02-07T15:00:57.835Z,100059.42
2019-02-07T15:05:02.402Z,100061.55
2019-02-07T15:09:13.611Z,100059.77
2019-02-07T15:13:18.107Z,100054.88
2019-02-07T15:17:22.454Z,100054.94
2019-02-07T15:21:27.116Z,100058.75
2019-02-07T15:25:31.492Z,100059.61
2019-02-07T15:29:35.717Z,100063.00
2019-02-07T15:33:39.949Z,100068.55
2019-02-07T15:37:44.126Z,100063.23
2019-02-07T15:41:49.822Z,100058.69
2019-02-07T15:45:54.410Z,100062.00
2019-02-07T15:49:58.721Z,100064.13
2019-02-07T15:54:03.044Z,100067.93
2019-02-07T15:58:07.619Z,100065.13
2019-02-07T16:02:37.211Z,100066.64
2019-02-07T16:06:41.657Z,100064.75
2019-02-07T16:10:46.047Z,100066.23
2019-02-07T16:14:50.669Z,100065.20
2019-02-07T16:18:55.255Z,100057.20
2019-02-07T16:27:39.264Z,100063.78
2019-02-07T16:31:44.615Z,100062.85
2019-02-07T16:35:49.453Z,100069.75
2019-02-07T16:39:54.093Z,100062.67
2019-02-07T16:43:58.886Z,100076.53
2019-02-07T16:48:03.648Z,100068.60
2019-02-07T16:52:08.327Z,100072.44
2019-02-07T16:56:13.286Z,100070.23
2019-02-07T17:00:20.860Z,100074.56
2019-02-07T17:04:25.640Z,100079.61
2019-02-07T17:08:30.197Z,100075.86
2019-02-07T17:12:35.622Z,100083.92
2019-02-07T17:16:40.217Z,100089.53
2019-02-07T17:20:44.844Z,100089.20
2019-02-07T17:24:49.630Z,100089.17
2019-02-07T17:28:54.282Z,100090.00
2019-02-07T17:32:58.851Z,100089.02
2019-02-07T17:37:03.348Z,100095.04
2019-02-07T17:41:07.944Z,100097.56
2019-02-07T17:45:16.190Z,100095.67
2019-02-07T17:49:21.204Z,100093.92
2019-02-07T17:53:25.819Z,100096.84
2019-02-07T17:57:30.337Z,100093.69
2019-02-07T18:01:35.084Z,100094.82
2019-02-07T18:05:40.099Z,100096.92
2019-02-07T18:09:44.430Z,100097.59
2019-02-07T18:13:48.848Z,100096.23
2019-02-07T18:17:53.207Z,100090.09
2019-02-07T18:21:57.449Z,100092.10
2019-02-07T18:26:01.691Z,100100.16
2019-02-07T18:34:36.638Z,100106.42
2019-02-07T18:38:41.040Z,100106.21
2019-02-07T18:42:45.485Z,100105.22
2019-02-07T18:46:49.619Z,100111.66
2019-02-07T18:50:53.847Z,100118.10
2019-02-07T18:54:59.565Z,100116.23
2019-02-07T18:59:03.742Z,100119.70
2019-02-07T19:03:08.973Z,100129.28
2019-02-07T19:07:13.152Z,100132.17
2019-02-07T19:11:17.621Z,100131.72
2019-02-07T19:15:24.880Z,100131.95
2019-02-07T19:19:29.250Z,100133.55
2019-02-07T19:23:33.521Z,100137.75
2019-02-07T19:27:37.825Z,100135.48
2019-02-07T19:31:41.998Z,100134.53
2019-02-07T19:35:46.291Z,100138.30
2019-02-07T19:39:50.597Z,100142.05
2019-02-07T19:43:54.820Z,100139.25
2019-02-07T19:47:59.487Z,100145.30
2019-02-07T19:52:08.283Z,100135.35
2019-02-07T19:56:09.697Z,100151.80
2019-02-07T20:00:16.688Z,100156.08
2019-02-07T20:04:21.143Z,100169.77
2019-02-07T20:08:25.370Z,100173.41
2019-02-07T20:12:29.554Z,100172.72
2019-02-07T20:16:33.821Z,100161.38
2019-02-07T20:20:38.964Z,100169.99
2019-02-07T20:24:46.129Z,100165.51
2019-02-07T20:28:51.738Z,100163.14
2019-02-07T20:32:55.205Z,100169.70
2019-02-07T20:36:59.587Z,100172.01
2019-02-07T20:41:03.997Z,100164.56
2019-02-07T20:45:09.280Z,100166.67
2019-02-07T20:49:13.777Z,100169.47
2019-02-07T20:53:18.241Z,100172.46
2019-02-07T20:57:22.929Z,100166.61
2019-02-07T21:01:27.225Z,100172.84
2019-02-07T21:05:32.630Z,100179.60
2019-02-07T21:09:36.810Z,100188.01
2019-02-07T21:13:41.090Z,100186.34
2019-02-07T21:17:45.458Z,100192.17
2019-02-07T21:21:49.791Z,100192.53
2019-02-07T21:25:54.172Z,100197.89
2019-02-07T21:29:58.400Z,100193.33
2019-02-07T21:34:02.607Z,100200.63
2019-02-07T21:38:07.252Z,100202.80
2019-02-07T21:42:11.465Z,100203.44
2019-02-07T21:46:15.688Z,100213.56
2019-02-07T21:50:21.842Z,100216.52
2019-02-07T21:54:26.395Z,100219.60
2019-02-07T21:58:30.960Z,100231.75
2019-02-07T22:02:35.141Z,100228.69
2019-02-07T22:06:39.358Z,100234.70
2019-02-07T22:10:43.988Z,100222.87
2019-02-07T22:14:48.508Z,100228.91
2019-02-07T22:18:52.720Z,100227.19
2019-02-07T22:22:57.008Z,100221.25
2019-02-07T22:27:01.703Z,100220.83
2019-02-07T22:31:05.930Z,100227.81
2019-02-07T22:35:10.666Z,100220.06
2019-02-07T22:39:14.870Z,100234.17
2019-02-07T22:43:19.108Z,100226.03
2019-02-07T22:47:23.297Z,100229.54
2019-02-07T22:51:27.522Z,100234.23
2019-02-07T22:55:31.809Z,100233.57
2019-02-07T22:59:36.035Z,100244.52
2019-02-07T23:04:03.802Z,100241.92
2019-02-07T23:08:08.111Z,100241.99
2019-02-07T23:12:12.348Z,100243.68
2019-02-07T23:16:16.821Z,100243.02
2019-02-07T23:20:21.788Z,100244.70
2019-02-07T23:24:26.044Z,100250.59
2019-02-07T23:28:30.317Z,100252.21
2019-02-07T23:32:34.549Z,100251.89
2019-02-07T23:36:38.884Z,100247.72
2019-02-07T23:40:43.078Z,100248.74
2019-02-07T23:44:47.310Z,100247.83
2019-02-07T23:48:51.670Z,100246.73
2019-02-07T23:52:55.958Z,100253.23
2019-02-07T23:57:00.215Z,100253.30
